METAR Data
IDs: Format: Raw Decoded Include TAF

Data at: 1740 UTC 20 Jan 2019

METAR for:KFPK (Charotte/Beach Fld, MI, US)
Text:KFPK 201736Z AUTO 01008G15KT 10SM CLR M14/M21 A3020 RMK AO2 T11371210
Temperature:-13.7°C ( 7°F)
Dewpoint:-21.0°C ( -6°F) [RH = 54%]
Pressure (altimeter):30.20 inches Hg (1022.8 mb)
Winds:from the N (10 degrees) at 9 MPH (8 knots; 4.1 m/s) gusting to 17 MPH (15 knots; 7.7 m/s)
Visibility:10 or more sm (16+ km)
Ceiling:at least 12,000 feet AGL
Clouds:sky clear below 12,000 feet AGL
QC Flag:automated observation with no human augmentation

TAF for:KFPK (Charotte/Beach Fld, MI, US)
Text:No data found

METAR for:KLAN (Lansing/Capital City, MI, US)
Text:KLAN 201653Z 35013KT 10SM CLR M14/M21 A3022 RMK AO2 SLP256 T11441211
Temperature:-14.4°C ( 6°F)
Dewpoint:-21.1°C ( -6°F) [RH = 57%]
Pressure (altimeter):30.22 inches Hg (1023.5 mb) [Sea level pressure: 1025.6 mb]
Winds:from the N (350 degrees) at 15 MPH (13 knots; 6.7 m/s)
Visibility:10 or more sm (16+ km)
Ceiling:at least 12,000 feet AGL
Clouds:sky clear below 12,000 feet AGL

TAF for:KLAN (Lansing/Capital City, MI, US) issued at 1740 UTC 20 Jan 2019
Text:KLAN 201740Z 2018/2118 36009KT P6SM SKC
Forecast period:1800 UTC 20 January 2019 to 1800 UTC 21 January 2019
Forecast type:FROM: standard forecast or significant change
Winds:from the N (360 degrees) at 10 MPH (9 knots; 4.6 m/s)
Visibility:6 or more sm (10+ km)
Ceiling:at least 12,000 feet AGL
Clouds:clear skies